Gilford, Vermont
Current Conditions -  °F | °C
As of 1:35 AM on Sunday 26 Oct 2014 (Local Time) from KEEN Reporting Station
Clear Clear  
Wind Chill: 45°   Ceiling: Unl
Heat Index: 45°   Visibility: 7mi
Dew Point: 37°   Wind: 0mph
Humidity: 76%   Direction: NA
Pressure: 29.49"   Gusts: NA
Location:  42.8513°N, 72.6568°W
Report Text: KEEN 260535Z AUTO 00000KT 7SM CLR 07/03 A2949 RMK AO1
Loading
Personal Weather Stations






























Interactive Weather Map
Tropical Storm Tracking
New forecast layout! Learn more

10-Day Weather Forecast

Advertisements
Track Severe Weather on mobile